createdAt,value
2023-01-25T00:01:06.693Z,69.18
2023-01-25T00:03:34.249Z,44.15
2023-01-25T00:06:01.981Z,55.17
2023-01-25T00:08:29.319Z,48.58
2023-01-25T00:10:58.569Z,39.65
2023-01-25T00:13:26.421Z,39.40
2023-01-25T00:15:53.878Z,45.38
2023-01-25T00:18:21.412Z,42.35
2023-01-25T00:20:48.883Z,40.90
2023-01-25T00:23:16.097Z,37.03
2023-01-25T00:25:44.215Z,37.20
2023-01-25T00:28:11.237Z,42.33
2023-01-25T00:30:38.557Z,33.92
2023-01-25T00:33:17.551Z,39.30
2023-01-25T00:35:45.473Z,34.13
2023-01-25T00:38:30.676Z,42.25
2023-01-25T00:41:06.333Z,62.65
2023-01-25T00:43:40.565Z,46.47
2023-01-25T00:46:26.194Z,37.08
2023-01-25T00:48:57.722Z,30.23
2023-01-25T00:51:25.876Z,28.92
2023-01-25T00:53:53.505Z,33.75
2023-01-25T00:56:21.123Z,34.55
2023-01-25T00:58:48.587Z,39.45
2023-01-25T01:01:18.811Z,36.75
2023-01-25T01:04:26.851Z,30.92
2023-01-25T01:06:56.104Z,36.55
2023-01-25T01:12:52.426Z,47.85
2023-01-25T01:15:19.929Z,36.60
2023-01-25T01:17:47.578Z,33.45
2023-01-25T01:20:14.786Z,68.82
2023-01-25T01:22:42.566Z,41.40
2023-01-25T01:25:10.886Z,36.40
2023-01-25T01:27:38.189Z,34.70
2023-01-25T01:30:06.430Z,39.17
2023-01-25T01:32:34.723Z,38.15
2023-01-25T01:35:02.716Z,40.30
2023-01-25T01:37:30.142Z,40.17
2023-01-25T01:39:57.136Z,43.95
2023-01-25T01:42:24.715Z,36.22
2023-01-25T01:44:54.241Z,33.30
2023-01-25T01:47:24.087Z,30.30
2023-01-25T01:50:02.059Z,32.45
2023-01-25T01:52:36.967Z,29.75
2023-01-25T01:55:11.748Z,30.67
2023-01-25T01:57:47.865Z,31.73
2023-01-25T02:00:22.992Z,35.17
2023-01-25T02:02:51.409Z,41.78
2023-01-25T02:05:29.824Z,38.47
2023-01-25T02:07:58.264Z,40.65
2023-01-25T02:10:27.085Z,34.88
2023-01-25T02:12:57.701Z,44.22
2023-01-25T02:15:32.183Z,39.47
2023-01-25T02:17:59.994Z,35.67
2023-01-25T02:20:39.698Z,57.20
2023-01-25T02:23:24.948Z,39.58
2023-01-25T02:25:52.942Z,34.78
2023-01-25T02:28:41.301Z,29.67
2023-01-25T02:31:10.083Z,35.65
2023-01-25T02:33:37.859Z,43.10
2023-01-25T02:36:08.060Z,42.55
2023-01-25T02:38:39.747Z,39.38
2023-01-25T02:41:20.615Z,33.80
2023-01-25T02:43:49.034Z,37.55
2023-01-25T02:46:27.894Z,35.42
2023-01-25T02:48:56.829Z,34.05
2023-01-25T02:51:26.428Z,29.55
2023-01-25T02:53:56.233Z,29.83
2023-01-25T02:56:24.347Z,30.70
2023-01-25T02:58:52.331Z,33.75
2023-01-25T03:01:20.805Z,33.60
2023-01-25T03:03:48.852Z,29.80
2023-01-25T03:06:17.310Z,30.55
2023-01-25T03:08:44.996Z,36.13
2023-01-25T03:11:14.338Z,31.17
2023-01-25T03:13:43.345Z,44.03
2023-01-25T03:16:13.177Z,32.85
2023-01-25T03:18:43.787Z,37.92
2023-01-25T03:21:17.221Z,34.75
2023-01-25T03:23:47.425Z,36.72
2023-01-25T03:26:22.398Z,38.45
2023-01-25T03:29:03.537Z,39.05
2023-01-25T03:31:30.850Z,39.00
2023-01-25T03:33:58.237Z,42.67
2023-01-25T03:36:30.714Z,47.60
2023-01-25T03:38:58.099Z,44.28
2023-01-25T03:41:25.645Z,43.22
2023-01-25T03:43:57.773Z,50.22
2023-01-25T03:46:25.635Z,69.97
2023-01-25T03:48:55.274Z,51.88
2023-01-25T03:51:22.503Z,45.30
2023-01-25T03:53:49.828Z,45.75
2023-01-25T03:56:20.403Z,48.20
2023-01-25T03:59:12.620Z,42.80
2023-01-25T04:01:40.665Z,39.40
2023-01-25T04:04:08.521Z,42.25
2023-01-25T04:06:38.366Z,49.60
2023-01-25T04:09:06.984Z,38.45
2023-01-25T04:11:39.630Z,43.15
2023-01-25T04:14:07.693Z,44.35
2023-01-25T04:16:44.838Z,38.70
2023-01-25T04:19:38.340Z,38.35
2023-01-25T04:22:09.354Z,79.07
2023-01-25T04:24:38.847Z,49.92
2023-01-25T04:27:06.101Z,163.90
2023-01-25T04:29:41.927Z,112.70
2023-01-25T04:32:15.171Z,438.17
2023-01-25T04:34:43.795Z,657.03
2023-01-25T04:37:15.554Z,120.72
2023-01-25T04:39:53.688Z,122.05
2023-01-25T04:42:21.556Z,189.40
2023-01-25T04:44:53.149Z,83.97
2023-01-25T04:47:21.378Z,88.00
2023-01-25T04:49:48.865Z,366.13
2023-01-25T04:52:19.652Z,88.18
2023-01-25T04:54:47.341Z,77.00
2023-01-25T04:57:14.538Z,89.78
2023-01-25T04:59:51.397Z,181.32
2023-01-25T05:02:21.774Z,120.43
2023-01-25T05:04:49.819Z,75.45
2023-01-25T05:07:19.138Z,185.75
2023-01-25T05:09:47.186Z,71.25
2023-01-25T05:12:15.117Z,175.43
2023-01-25T05:15:04.108Z,61.53
2023-01-25T05:17:31.579Z,40.45
2023-01-25T05:20:00.987Z,43.13
2023-01-25T05:22:48.154Z,70.07
2023-01-25T05:25:34.946Z,128.95
2023-01-25T05:28:06.773Z,55.25
2023-01-25T05:31:03.143Z,48.47
2023-01-25T05:33:31.839Z,55.55
2023-01-25T05:35:59.463Z,55.17
2023-01-25T05:38:31.619Z,48.58
2023-01-25T05:40:59.980Z,42.13
2023-01-25T05:43:28.765Z,47.38
2023-01-25T05:46:01.532Z,51.28
2023-01-25T05:48:29.309Z,48.15
2023-01-25T05:50:58.767Z,40.90
2023-01-25T05:53:29.408Z,42.67
2023-01-25T05:55:57.714Z,52.25
2023-01-25T05:58:25.823Z,58.13
2023-01-25T06:00:55.748Z,63.45
2023-01-25T06:03:35.148Z,52.38
2023-01-25T06:06:03.505Z,61.80
2023-01-25T06:08:32.791Z,74.78
2023-01-25T06:11:05.940Z,101.43
2023-01-25T06:13:33.377Z,89.65
2023-01-25T06:16:01.095Z,139.43
2023-01-25T06:18:46.018Z,249.15
2023-01-25T06:21:35.344Z,263.45
2023-01-25T06:24:05.979Z,165.95
2023-01-25T06:26:33.901Z,130.48
2023-01-25T06:29:03.002Z,72.55
2023-01-25T06:31:30.437Z,53.58
2023-01-25T06:34:01.110Z,56.40
2023-01-25T06:36:32.619Z,75.45
2023-01-25T06:38:59.728Z,75.38
2023-01-25T06:41:27.243Z,107.85
2023-01-25T06:43:55.867Z,56.83
2023-01-25T06:46:24.822Z,65.40
2023-01-25T06:48:51.996Z,67.18
2023-01-25T06:51:19.586Z,62.28
2023-01-25T06:53:47.653Z,54.63
2023-01-25T06:56:21.646Z,79.53
2023-01-25T06:58:50.538Z,75.68
2023-01-25T07:01:27.666Z,81.80
2023-01-25T07:03:57.136Z,91.72
2023-01-25T07:06:26.126Z,79.68
2023-01-25T07:08:53.223Z,99.53
2023-01-25T07:11:20.569Z,93.97
2023-01-25T07:13:48.754Z,104.38
2023-01-25T07:16:19.024Z,131.40
2023-01-25T07:18:46.766Z,126.97
2023-01-25T07:21:22.313Z,116.75
2023-01-25T07:23:50.845Z,115.25
2023-01-25T07:26:25.203Z,132.60
2023-01-25T07:28:53.556Z,107.93
2023-01-25T07:31:21.492Z,99.40
2023-01-25T07:33:54.578Z,121.22
2023-01-25T07:36:23.129Z,169.73
2023-01-25T07:38:54.921Z,227.20
2023-01-25T07:41:23.421Z,278.73
2023-01-25T07:43:52.390Z,219.23
2023-01-25T07:46:34.064Z,251.23
2023-01-25T07:49:01.065Z,213.70
2023-01-25T07:51:30.782Z,202.05
2023-01-25T07:54:00.525Z,163.10
2023-01-25T07:56:30.418Z,268.55
2023-01-25T07:58:59.411Z,193.43
2023-01-25T08:01:28.468Z,212.02
2023-01-25T08:03:56.573Z,178.73
2023-01-25T08:06:27.508Z,193.93
2023-01-25T08:08:55.584Z,195.38
2023-01-25T08:11:26.527Z,190.65
2023-01-25T08:13:56.012Z,244.27
2023-01-25T08:16:28.215Z,225.90
2023-01-25T08:18:57.422Z,244.40
2023-01-25T08:21:29.154Z,195.93
2023-01-25T08:24:00.733Z,179.02
2023-01-25T08:26:29.072Z,206.35
2023-01-25T08:28:57.946Z,232.57
2023-01-25T08:31:28.562Z,266.25
2023-01-25T08:33:56.498Z,324.48
2023-01-25T08:36:24.433Z,231.95
2023-01-25T08:38:57.156Z,216.48
2023-01-25T08:41:26.064Z,151.18
2023-01-25T08:43:56.452Z,191.70
2023-01-25T08:46:25.971Z,157.38
2023-01-25T08:48:57.101Z,360.42
2023-01-25T08:51:25.773Z,141.15
2023-01-25T08:53:53.206Z,199.68
2023-01-25T08:56:21.081Z,111.88
2023-01-25T08:58:49.897Z,289.85
2023-01-25T09:01:19.599Z,179.73
2023-01-25T09:03:48.820Z,203.95
2023-01-25T09:06:19.788Z,393.50
2023-01-25T09:08:47.536Z,139.18
2023-01-25T09:11:20.803Z,171.65
2023-01-25T09:13:52.093Z,274.60
2023-01-25T09:16:30.665Z,175.77
2023-01-25T09:19:03.100Z,145.00
2023-01-25T09:21:31.738Z,220.95
2023-01-25T09:24:07.520Z,235.25
2023-01-25T09:26:37.985Z,165.45
2023-01-25T09:29:05.490Z,172.95
2023-01-25T09:31:33.578Z,129.48
2023-01-25T09:34:15.023Z,216.40
2023-01-25T09:36:42.557Z,161.13
2023-01-25T09:39:14.958Z,229.75
2023-01-25T09:42:14.913Z,184.70
2023-01-25T09:45:10.617Z,108.78
2023-01-25T09:47:57.502Z,227.68
2023-01-25T09:51:03.763Z,203.13
2023-01-25T09:53:39.018Z,118.05
2023-01-25T09:56:26.849Z,102.60
2023-01-25T09:58:58.791Z,86.35
2023-01-25T10:01:44.511Z,107.13
2023-01-25T10:04:18.967Z,83.53
2023-01-25T10:07:01.400Z,81.90
2023-01-25T10:09:45.048Z,84.03
2023-01-25T10:12:23.636Z,183.30
2023-01-25T10:14:51.952Z,67.53
2023-01-25T10:17:38.585Z,202.30
2023-01-25T10:20:24.167Z,71.10
2023-01-25T10:23:25.751Z,93.55
2023-01-25T10:26:01.423Z,108.47
2023-01-25T10:28:46.611Z,120.25
2023-01-25T10:31:18.791Z,147.20
2023-01-25T10:33:47.793Z,145.02
2023-01-25T10:36:18.144Z,97.68
2023-01-25T10:38:47.599Z,120.32
2023-01-25T10:41:26.996Z,127.68
2023-01-25T10:44:13.222Z,125.75
2023-01-25T10:46:47.350Z,110.85
2023-01-25T10:49:22.796Z,132.68
2023-01-25T10:51:50.151Z,112.80
2023-01-25T10:54:17.448Z,92.97
2023-01-25T10:56:48.772Z,89.65
2023-01-25T10:59:23.894Z,91.07
2023-01-25T11:04:36.167Z,122.18
2023-01-25T11:09:38.896Z,96.90
2023-01-25T11:12:18.970Z,118.70
2023-01-25T11:14:50.856Z,81.15
2023-01-25T11:17:31.429Z,81.70
2023-01-25T11:20:24.694Z,93.85
2023-01-25T11:22:57.468Z,101.57
2023-01-25T11:25:25.857Z,101.13
2023-01-25T11:28:13.221Z,100.32
2023-01-25T11:30:40.371Z,51.20
2023-01-25T11:33:15.035Z,57.10
2023-01-25T11:36:06.277Z,86.88
2023-01-25T11:38:33.876Z,229.95
2023-01-25T11:41:20.045Z,156.68
2023-01-25T11:43:56.750Z,147.93
2023-01-25T11:46:45.932Z,120.88
2023-01-25T11:49:34.393Z,98.80
2023-01-25T11:52:01.384Z,147.35
2023-01-25T11:54:47.854Z,95.05
2023-01-25T11:57:35.860Z,130.95
2023-01-25T12:00:06.138Z,164.60
2023-01-25T12:02:46.094Z,119.63
2023-01-25T12:05:22.657Z,97.25
2023-01-25T12:08:04.403Z,124.00
2023-01-25T12:10:59.528Z,122.22
2023-01-25T12:13:42.271Z,129.18
2023-01-25T12:16:33.485Z,76.97
2023-01-25T12:19:36.017Z,95.80
2023-01-25T12:22:24.800Z,120.90
2023-01-25T12:25:28.604Z,133.52
2023-01-25T12:28:16.706Z,80.75
2023-01-25T12:31:14.653Z,97.40
2023-01-25T12:34:14.197Z,160.85
2023-01-25T12:36:45.376Z,127.60
2023-01-25T12:39:24.678Z,199.75
2023-01-25T12:42:19.598Z,247.27
2023-01-25T12:44:58.341Z,147.90
2023-01-25T12:47:48.390Z,237.32
2023-01-25T12:50:21.712Z,239.85
2023-01-25T12:53:01.874Z,129.07
2023-01-25T12:55:29.900Z,113.70
2023-01-25T12:58:06.949Z,98.45
2023-01-25T13:00:40.862Z,109.22
2023-01-25T13:03:25.355Z,120.80
2023-01-25T13:06:26.414Z,71.07
2023-01-25T13:08:53.408Z,89.45
2023-01-25T13:11:20.764Z,69.60
2023-01-25T13:13:47.958Z,89.63
2023-01-25T13:16:30.390Z,112.85
2023-01-25T13:18:58.928Z,89.20
2023-01-25T13:21:40.280Z,74.72
2023-01-25T13:24:13.996Z,108.78
2023-01-25T13:26:48.950Z,92.53
2023-01-25T13:29:38.282Z,175.93
2023-01-25T13:32:24.722Z,97.45
2023-01-25T13:34:54.936Z,97.78
2023-01-25T13:37:25.145Z,99.85
2023-01-25T13:40:30.453Z,122.20
2023-01-25T13:43:13.212Z,74.88
2023-01-25T13:45:42.711Z,122.57
2023-01-25T13:48:17.629Z,80.65
2023-01-25T13:50:47.931Z,79.88
2023-01-25T13:53:15.618Z,103.53
2023-01-25T13:55:53.322Z,104.05
2023-01-25T13:58:36.314Z,131.88
2023-01-25T14:01:08.223Z,147.05
2023-01-25T14:03:41.902Z,114.05
2023-01-25T14:06:25.508Z,70.15
2023-01-25T14:08:55.745Z,203.20
2023-01-25T14:11:28.933Z,178.50
2023-01-25T14:14:16.859Z,134.30
2023-01-25T14:16:44.520Z,191.60
2023-01-25T14:19:22.311Z,103.05
2023-01-25T14:21:49.940Z,129.65
2023-01-25T14:24:19.260Z,112.95
2023-01-25T14:26:47.618Z,122.35
2023-01-25T14:29:35.162Z,77.72
2023-01-25T14:32:03.508Z,86.45
2023-01-25T14:34:30.936Z,89.68
2023-01-25T14:37:18.271Z,90.22
2023-01-25T14:39:47.217Z,198.35
2023-01-25T14:42:16.259Z,88.32
2023-01-25T14:44:45.249Z,298.77
2023-01-25T14:47:32.350Z,131.80
2023-01-25T14:50:30.742Z,115.25
2023-01-25T14:52:59.943Z,139.45
2023-01-25T14:55:27.620Z,184.65
2023-01-25T14:58:00.170Z,133.93
2023-01-25T15:00:32.066Z,147.88
2023-01-25T15:03:07.761Z,167.70
2023-01-25T15:05:37.351Z,124.07
2023-01-25T15:08:07.373Z,181.60
2023-01-25T15:10:50.391Z,130.00
2023-01-25T15:13:17.519Z,151.57
2023-01-25T15:16:02.691Z,150.52
2023-01-25T15:18:48.589Z,123.50
2023-01-25T15:21:35.044Z,244.32
2023-01-25T15:24:13.671Z,218.02
2023-01-25T15:26:41.070Z,172.25
2023-01-25T15:29:16.985Z,155.73
2023-01-25T15:31:45.388Z,150.00
2023-01-25T15:34:19.352Z,231.30
2023-01-25T15:36:47.799Z,245.23
2023-01-25T15:39:17.027Z,195.57
2023-01-25T15:41:44.789Z,264.85
2023-01-25T15:44:12.207Z,298.42
2023-01-25T15:46:43.793Z,397.30
2023-01-25T15:49:17.544Z,205.18
2023-01-25T15:51:46.996Z,637.80
2023-01-25T15:54:16.128Z,440.60
2023-01-25T15:56:51.403Z,320.20
2023-01-25T15:59:19.760Z,234.77
2023-01-25T16:01:47.228Z,203.27
2023-01-25T16:04:14.536Z,230.60
2023-01-25T16:06:50.528Z,621.90
2023-01-25T16:11:55.273Z,279.20
2023-01-25T16:14:31.998Z,246.85
2023-01-25T16:17:05.591Z,198.40
2023-01-25T16:19:33.573Z,185.45
2023-01-25T16:22:01.261Z,248.02
2023-01-25T16:24:28.472Z,162.05
2023-01-25T16:26:58.154Z,150.45
2023-01-25T16:29:25.700Z,138.32
2023-01-25T16:31:54.307Z,105.13
2023-01-25T16:34:22.356Z,95.55
2023-01-25T16:36:52.913Z,203.85
2023-01-25T16:39:25.392Z,148.55
2023-01-25T16:41:53.740Z,99.15
2023-01-25T16:44:23.733Z,123.00
2023-01-25T16:46:51.409Z,267.35
2023-01-25T16:49:30.520Z,126.15
2023-01-25T16:52:00.191Z,99.85
2023-01-25T16:54:27.558Z,124.03
2023-01-25T16:56:55.088Z,106.78
2023-01-25T16:59:23.650Z,115.93
2023-01-25T17:01:51.848Z,117.22
2023-01-25T17:04:19.625Z,133.57
2023-01-25T17:06:49.354Z,138.48
2023-01-25T17:09:24.770Z,178.80
2023-01-25T17:11:56.719Z,195.75
2023-01-25T17:14:26.561Z,149.50
2023-01-25T17:16:54.444Z,133.00
2023-01-25T17:19:21.560Z,108.72
2023-01-25T17:21:52.580Z,106.97
2023-01-25T17:24:21.627Z,111.93
2023-01-25T17:26:55.647Z,123.45
2023-01-25T17:29:22.839Z,99.80
2023-01-25T17:31:50.797Z,135.68
2023-01-25T17:34:18.963Z,161.35
2023-01-25T17:36:46.695Z,136.93
2023-01-25T17:39:15.697Z,135.65
2023-01-25T17:41:44.615Z,141.35
2023-01-25T17:44:12.737Z,277.27
2023-01-25T17:46:40.325Z,139.25
2023-01-25T17:49:12.216Z,278.65
2023-01-25T17:51:39.677Z,302.85
2023-01-25T17:54:06.977Z,219.93
2023-01-25T17:56:34.627Z,173.00
2023-01-25T17:59:02.576Z,178.98
2023-01-25T18:01:32.171Z,176.10
2023-01-25T18:04:00.625Z,309.35
2023-01-25T18:06:33.352Z,187.23
2023-01-25T18:09:02.353Z,201.80
2023-01-25T18:11:35.646Z,154.38
2023-01-25T18:14:08.221Z,174.88
2023-01-25T18:16:38.797Z,150.90
2023-01-25T18:19:07.083Z,170.77
2023-01-25T18:21:34.871Z,199.38
2023-01-25T18:24:22.295Z,209.40
2023-01-25T18:26:59.473Z,192.82
2023-01-25T18:29:37.677Z,187.07
2023-01-25T18:32:05.818Z,145.55
2023-01-25T18:34:33.530Z,119.30
2023-01-25T18:37:03.359Z,143.90
2023-01-25T18:39:30.465Z,187.95
2023-01-25T18:41:57.783Z,145.07
2023-01-25T18:44:26.897Z,123.85
2023-01-25T18:46:56.621Z,129.05
2023-01-25T18:49:23.803Z,175.40
2023-01-25T18:52:08.496Z,228.45
2023-01-25T18:54:37.928Z,206.57
2023-01-25T18:57:06.879Z,189.57
2023-01-25T18:59:34.164Z,208.77
2023-01-25T19:02:05.427Z,219.05
2023-01-25T19:04:32.619Z,182.75
2023-01-25T19:07:02.743Z,223.15
2023-01-25T19:09:31.610Z,209.85
2023-01-25T19:11:59.132Z,113.22
2023-01-25T19:14:26.450Z,163.65
2023-01-25T19:16:53.773Z,196.40
2023-01-25T19:19:21.617Z,118.80
2023-01-25T19:21:49.315Z,136.57
2023-01-25T19:24:19.427Z,99.50
2023-01-25T19:29:19.731Z,113.30
2023-01-25T19:31:47.089Z,116.78
2023-01-25T19:34:14.447Z,128.48
2023-01-25T19:36:49.315Z,132.88
2023-01-25T19:39:17.504Z,127.85
2023-01-25T19:41:45.831Z,104.97
2023-01-25T19:44:14.540Z,105.55
2023-01-25T19:46:42.751Z,90.50
2023-01-25T19:49:11.777Z,106.68
2023-01-25T19:51:42.206Z,111.80
2023-01-25T19:54:16.730Z,130.70
2023-01-25T19:56:49.716Z,116.05
2023-01-25T19:59:22.122Z,124.10
2023-01-25T20:01:49.837Z,148.65
2023-01-25T20:04:20.534Z,112.00
2023-01-25T20:06:49.483Z,119.38
2023-01-25T20:09:18.800Z,114.38
2023-01-25T20:11:47.503Z,111.40
2023-01-25T20:14:15.080Z,142.18
2023-01-25T20:16:42.704Z,155.23
2023-01-25T20:19:12.363Z,136.02
2023-01-25T20:21:40.185Z,143.15
2023-01-25T20:24:10.660Z,130.65
2023-01-25T20:26:42.570Z,117.05
2023-01-25T20:29:12.254Z,136.27
2023-01-25T20:31:44.892Z,141.23
2023-01-25T20:34:20.631Z,138.15
2023-01-25T20:36:49.780Z,98.40
2023-01-25T20:39:19.519Z,108.32
2023-01-25T20:41:47.666Z,109.63
2023-01-25T20:44:17.166Z,114.78
2023-01-25T20:46:45.112Z,103.25
2023-01-25T20:49:17.978Z,96.95
2023-01-25T20:51:46.454Z,79.15
2023-01-25T20:54:14.348Z,85.25
2023-01-25T20:56:43.077Z,75.25
2023-01-25T20:59:12.123Z,78.55
2023-01-25T21:01:40.052Z,73.00
2023-01-25T21:04:09.615Z,76.35
2023-01-25T21:06:38.717Z,83.60
2023-01-25T21:09:06.260Z,75.97
2023-01-25T21:11:33.875Z,78.97
2023-01-25T21:14:03.625Z,75.03
2023-01-25T21:16:31.125Z,74.47
2023-01-25T21:19:00.306Z,76.60
2023-01-25T21:21:29.992Z,81.28
2023-01-25T21:24:00.224Z,78.10
2023-01-25T21:26:33.358Z,77.28
2023-01-25T21:29:01.753Z,79.78
2023-01-25T21:31:32.969Z,84.40
2023-01-25T21:34:01.604Z,80.97
2023-01-25T21:36:29.755Z,87.95
2023-01-25T21:38:58.096Z,84.63
2023-01-25T21:41:29.878Z,74.93
2023-01-25T21:44:17.364Z,74.75
2023-01-25T21:47:06.107Z,73.20
2023-01-25T21:49:51.283Z,72.07
2023-01-25T21:52:18.686Z,72.10
2023-01-25T21:54:45.812Z,73.07
2023-01-25T21:57:13.094Z,82.93
2023-01-25T21:59:41.341Z,78.85
2023-01-25T22:02:14.104Z,77.00
2023-01-25T22:04:41.469Z,78.28
2023-01-25T22:07:10.892Z,80.32
2023-01-25T22:09:38.015Z,81.35
2023-01-25T22:12:05.605Z,81.07
2023-01-25T22:14:32.867Z,78.90
2023-01-25T22:17:00.422Z,83.45
2023-01-25T22:19:27.503Z,94.45
2023-01-25T22:21:55.198Z,114.15
2023-01-25T22:24:22.467Z,104.78
2023-01-25T22:27:28.073Z,121.15
2023-01-25T22:29:55.150Z,102.80
2023-01-25T22:32:22.500Z,95.70
2023-01-25T22:34:49.619Z,107.45
2023-01-25T22:37:17.345Z,103.07
2023-01-25T22:39:45.546Z,87.90
2023-01-25T22:42:15.811Z,101.03
2023-01-25T22:44:42.923Z,86.28
2023-01-25T22:47:13.047Z,86.10
2023-01-25T22:49:42.484Z,93.25
2023-01-25T22:52:09.834Z,86.95
2023-01-25T22:54:37.241Z,90.72
2023-01-25T22:57:04.729Z,90.47
2023-01-25T22:59:31.731Z,91.25
2023-01-25T23:01:59.173Z,90.68
2023-01-25T23:04:26.400Z,102.72
2023-01-25T23:07:12.676Z,98.95
2023-01-25T23:09:40.750Z,95.07
2023-01-25T23:12:08.492Z,97.63
2023-01-25T23:14:54.118Z,142.30
2023-01-25T23:17:44.616Z,106.10
2023-01-25T23:20:12.952Z,332.23
2023-01-25T23:22:40.687Z,137.50
2023-01-25T23:25:08.941Z,151.32
2023-01-25T23:27:38.793Z,136.85
2023-01-25T23:30:07.337Z,113.72
2023-01-25T23:32:37.428Z,125.53
2023-01-25T23:35:05.336Z,119.07
2023-01-25T23:37:32.802Z,87.82
2023-01-25T23:39:59.851Z,110.40
2023-01-25T23:42:29.471Z,85.30
2023-01-25T23:44:56.783Z,85.07
2023-01-25T23:47:24.127Z,96.68
2023-01-25T23:49:51.201Z,142.32
2023-01-25T23:52:18.469Z,84.28
2023-01-25T23:54:45.648Z,96.10
2023-01-25T23:57:13.003Z,95.88
2023-01-25T23:59:40.572Z,79.65
